createdAt,value
2017-06-22T00:01:04.339Z,77.60
2017-06-22T00:03:37.279Z,77.20
2017-06-22T00:06:10.166Z,77.00
2017-06-22T00:08:43.221Z,77.90
2017-06-22T00:11:16.279Z,77.40
2017-06-22T00:13:49.296Z,77.80
2017-06-22T00:16:22.011Z,78.30
2017-06-22T00:18:54.756Z,78.00
2017-06-22T00:21:27.712Z,78.00
2017-06-22T00:24:00.646Z,78.50
2017-06-22T00:26:33.722Z,78.40
2017-06-22T00:29:06.243Z,78.60
2017-06-22T00:31:39.251Z,78.60
2017-06-22T00:34:11.999Z,78.80
2017-06-22T00:36:44.903Z,78.80
2017-06-22T00:39:17.903Z,79.80
2017-06-22T00:41:51.278Z,79.40
2017-06-22T00:44:23.779Z,79.40
2017-06-22T00:46:56.554Z,79.40
2017-06-22T00:49:29.679Z,79.10
2017-06-22T00:52:02.091Z,79.50
2017-06-22T00:54:35.008Z,79.60
2017-06-22T00:57:08.039Z,79.70
2017-06-22T00:59:40.896Z,80.40
2017-06-22T01:02:14.955Z,81.00
2017-06-22T01:04:47.950Z,80.90
2017-06-22T01:07:20.739Z,80.80
2017-06-22T01:09:53.799Z,80.90
2017-06-22T01:12:26.973Z,80.70
2017-06-22T01:14:59.299Z,81.20
2017-06-22T01:17:32.115Z,81.60
2017-06-22T01:20:05.143Z,80.90
2017-06-22T01:22:38.071Z,80.60
2017-06-22T01:25:11.056Z,81.40
2017-06-22T01:27:44.215Z,81.60
2017-06-22T01:30:17.058Z,81.80
2017-06-22T01:32:50.231Z,82.20
2017-06-22T01:35:23.103Z,82.50
2017-06-22T01:37:56.091Z,82.70
2017-06-22T01:40:28.639Z,82.20
2017-06-22T01:43:01.511Z,82.80
2017-06-22T01:45:34.246Z,82.60
2017-06-22T01:48:08.202Z,83.00
2017-06-22T01:50:41.131Z,82.90
2017-06-22T01:53:16.419Z,82.30
2017-06-22T01:55:49.011Z,82.30
2017-06-22T01:58:21.842Z,82.50
2017-06-22T02:00:54.595Z,82.60
2017-06-22T02:03:27.519Z,82.20
2017-06-22T02:06:00.619Z,82.80
2017-06-22T02:08:33.768Z,82.50
2017-06-22T02:11:06.459Z,82.70
2017-06-22T02:13:39.372Z,82.70
2017-06-22T02:16:27.311Z,82.50
2017-06-22T02:19:00.264Z,83.00
2017-06-22T02:21:33.076Z,83.50
2017-06-22T02:24:05.808Z,83.50
2017-06-22T02:26:38.819Z,83.90
2017-06-22T02:29:11.684Z,84.20
2017-06-22T02:31:44.642Z,83.60
2017-06-22T02:34:17.671Z,83.40
2017-06-22T02:36:50.347Z,84.10
2017-06-22T02:39:23.425Z,84.30
2017-06-22T02:41:56.317Z,83.80
2017-06-22T02:44:29.296Z,84.30
2017-06-22T02:47:02.183Z,84.60
2017-06-22T02:49:32.163Z,85.70
2017-06-22T02:52:04.903Z,84.60
2017-06-22T02:54:37.776Z,84.00
2017-06-22T02:57:10.695Z,84.10
2017-06-22T02:59:42.951Z,84.30
2017-06-22T03:02:15.852Z,85.20
2017-06-22T03:04:48.583Z,85.50
2017-06-22T03:07:21.192Z,85.80
2017-06-22T03:09:54.322Z,85.60
2017-06-22T03:12:26.963Z,85.90
2017-06-22T03:14:59.708Z,86.00
2017-06-22T03:17:32.529Z,85.30
2017-06-22T03:20:05.445Z,85.40
2017-06-22T03:22:38.328Z,85.40
2017-06-22T03:25:11.315Z,85.40
2017-06-22T03:27:44.104Z,85.40
2017-06-22T03:30:16.724Z,85.90
2017-06-22T03:32:49.579Z,86.30
2017-06-22T03:35:22.330Z,86.50
2017-06-22T03:37:55.243Z,87.00
2017-06-22T03:40:27.915Z,86.90
2017-06-22T03:43:00.699Z,86.50
2017-06-22T03:45:33.531Z,86.80
2017-06-22T03:48:06.611Z,87.20
2017-06-22T03:50:39.579Z,86.50
2017-06-22T03:53:12.567Z,86.10
2017-06-22T03:55:45.571Z,85.90
2017-06-22T03:58:18.411Z,86.50
2017-06-22T04:00:51.239Z,86.30
2017-06-22T04:03:23.910Z,86.10
2017-06-22T04:05:57.019Z,86.40
2017-06-22T04:08:29.720Z,87.30
2017-06-22T04:11:02.675Z,86.50
2017-06-22T04:13:35.795Z,87.20
2017-06-22T04:16:08.610Z,87.20
2017-06-22T04:18:41.123Z,87.90
2017-06-22T04:21:13.935Z,87.40
2017-06-22T04:23:46.806Z,87.40
2017-06-22T04:26:21.871Z,88.00
2017-06-22T04:28:54.687Z,89.20
2017-06-22T04:31:27.683Z,88.20
2017-06-22T04:34:00.498Z,88.20
2017-06-22T04:36:35.531Z,88.10
2017-06-22T04:39:08.611Z,88.40
2017-06-22T04:41:41.455Z,88.70
2017-06-22T04:44:14.159Z,89.80
2017-06-22T04:46:46.982Z,89.20
2017-06-22T04:49:19.856Z,89.70
2017-06-22T04:51:52.583Z,90.30
2017-06-22T04:54:25.311Z,90.30
2017-06-22T04:56:58.455Z,89.80
2017-06-22T04:59:31.350Z,90.00
2017-06-22T05:02:04.531Z,90.00
2017-06-22T05:04:37.228Z,90.30
2017-06-22T05:07:10.163Z,90.10
2017-06-22T05:09:43.051Z,89.90
2017-06-22T05:12:15.906Z,90.80
2017-06-22T05:14:48.588Z,90.60
2017-06-22T05:17:21.659Z,91.00
2017-06-22T05:19:54.315Z,90.30
2017-06-22T05:22:27.236Z,90.30
2017-06-22T05:24:59.990Z,89.90
2017-06-22T05:27:32.768Z,89.40
2017-06-22T05:30:05.604Z,89.40
2017-06-22T05:32:38.659Z,89.60
2017-06-22T05:35:11.618Z,88.60
2017-06-22T05:37:44.591Z,87.90
2017-06-22T05:40:17.591Z,88.50
2017-06-22T05:42:50.507Z,88.40
2017-06-22T05:45:23.318Z,87.40
2017-06-22T05:47:56.566Z,88.00
2017-06-22T05:50:29.459Z,87.80
2017-06-22T05:53:02.195Z,88.20
2017-06-22T05:55:35.300Z,86.70
2017-06-22T05:58:08.171Z,87.30
2017-06-22T06:00:41.154Z,86.30
2017-06-22T06:03:14.071Z,86.30
2017-06-22T06:05:46.675Z,86.30
2017-06-22T06:08:19.847Z,85.70
2017-06-22T06:10:52.701Z,85.20
2017-06-22T06:13:25.399Z,85.90
2017-06-22T06:15:59.097Z,83.10
2017-06-22T06:18:31.897Z,77.50
2017-06-22T06:21:04.715Z,79.80
2017-06-22T06:23:37.671Z,78.30
2017-06-22T06:26:10.451Z,76.60
2017-06-22T06:28:43.227Z,69.30
2017-06-22T06:31:16.167Z,72.30
2017-06-22T06:33:49.187Z,71.20
2017-06-22T06:36:22.062Z,71.60
2017-06-22T06:38:55.093Z,72.10
2017-06-22T06:41:27.875Z,70.60
2017-06-22T06:44:00.695Z,71.70
2017-06-22T06:46:33.516Z,69.70
2017-06-22T06:49:06.282Z,72.00
2017-06-22T06:51:39.071Z,68.60
2017-06-22T06:54:12.195Z,67.50
2017-06-22T06:56:44.903Z,67.80
2017-06-22T06:59:17.795Z,68.60
2017-06-22T07:01:50.715Z,67.30
2017-06-22T07:04:23.612Z,66.90
2017-06-22T07:06:56.469Z,66.00
2017-06-22T07:09:29.447Z,65.10
2017-06-22T07:12:03.231Z,66.20
2017-06-22T07:14:36.215Z,62.80
2017-06-22T07:17:09.114Z,64.00
2017-06-22T07:19:42.027Z,65.70
2017-06-22T07:22:15.043Z,63.70
2017-06-22T07:24:47.870Z,63.20
2017-06-22T07:27:20.668Z,61.30
2017-06-22T07:29:53.003Z,61.10
2017-06-22T07:32:27.089Z,62.80
2017-06-22T07:34:59.808Z,60.30
2017-06-22T07:37:32.659Z,61.90
2017-06-22T07:40:05.522Z,60.30
2017-06-22T07:42:38.527Z,61.20
2017-06-22T07:45:11.405Z,60.40
2017-06-22T07:47:44.118Z,59.20
2017-06-22T07:50:16.955Z,58.90
2017-06-22T07:52:49.971Z,58.10
2017-06-22T07:55:22.738Z,60.00
2017-06-22T07:57:55.827Z,58.20
2017-06-22T08:00:28.689Z,59.10
2017-06-22T08:03:01.564Z,58.30
2017-06-22T08:05:34.151Z,59.00
2017-06-22T08:08:06.932Z,59.00
2017-06-22T08:10:40.844Z,55.90
2017-06-22T08:13:13.555Z,57.20
2017-06-22T08:15:45.905Z,56.30
2017-06-22T08:18:18.595Z,54.90
2017-06-22T08:20:51.539Z,54.90
2017-06-22T08:23:24.420Z,56.10
2017-06-22T08:25:57.447Z,56.30
2017-06-22T08:28:30.252Z,57.10
2017-06-22T08:31:03.023Z,56.20
2017-06-22T08:33:35.923Z,54.20
2017-06-22T08:36:09.988Z,56.00
2017-06-22T08:38:42.847Z,54.90
2017-06-22T08:41:19.763Z,57.50
2017-06-22T08:43:52.503Z,53.00
2017-06-22T08:46:25.323Z,51.90
2017-06-22T08:48:57.539Z,52.80
2017-06-22T08:51:30.071Z,54.10
2017-06-22T08:54:02.903Z,52.70
2017-06-22T08:56:35.839Z,52.00
2017-06-22T08:59:08.545Z,50.10
2017-06-22T09:01:41.516Z,50.10
2017-06-22T09:04:14.235Z,49.20
2017-06-22T09:06:48.117Z,50.30
2017-06-22T09:09:31.856Z,53.20
2017-06-22T09:12:04.938Z,52.10
2017-06-22T09:14:37.823Z,50.70
2017-06-22T09:17:10.768Z,49.40
2017-06-22T09:19:43.727Z,50.10
2017-06-22T09:22:16.729Z,49.80
2017-06-22T09:24:49.831Z,46.10
2017-06-22T09:27:22.511Z,45.30
2017-06-22T09:29:55.502Z,45.00
2017-06-22T09:32:28.297Z,38.30
2017-06-22T09:35:01.195Z,36.40
2017-06-22T09:37:33.815Z,35.80
2017-06-22T09:40:06.640Z,34.60
2017-06-22T09:42:39.363Z,33.60
2017-06-22T09:45:12.176Z,30.30
2017-06-22T09:47:47.268Z,30.80
2017-06-22T09:50:20.150Z,31.70
2017-06-22T09:52:53.107Z,28.50
2017-06-22T09:55:25.935Z,32.20
2017-06-22T09:57:58.936Z,30.00
2017-06-22T10:00:31.547Z,28.10
2017-06-22T10:03:04.587Z,28.40
2017-06-22T10:05:37.503Z,30.70
2017-06-22T10:08:10.455Z,28.80
2017-06-22T10:10:43.383Z,30.50
2017-06-22T10:13:16.195Z,29.90
2017-06-22T10:15:49.187Z,28.50
2017-06-22T10:18:22.275Z,30.40
2017-06-22T10:20:55.266Z,29.90
2017-06-22T10:23:28.423Z,31.40
2017-06-22T10:26:01.260Z,34.10
2017-06-22T10:28:34.355Z,32.30
2017-06-22T10:31:07.120Z,34.30
2017-06-22T10:33:39.847Z,35.20
2017-06-22T10:36:12.734Z,35.50
2017-06-22T10:38:45.603Z,36.70
2017-06-22T10:41:18.485Z,37.10
2017-06-22T10:43:51.426Z,38.10
2017-06-22T10:46:24.202Z,37.70
2017-06-22T10:48:57.171Z,39.70
2017-06-22T10:51:30.099Z,40.60
2017-06-22T10:54:02.991Z,41.00
2017-06-22T10:56:35.964Z,43.80
2017-06-22T10:59:08.839Z,40.20
2017-06-22T11:01:41.776Z,38.90
2017-06-22T11:04:14.635Z,38.30
2017-06-22T11:06:47.716Z,40.00
2017-06-22T11:09:20.659Z,42.30
2017-06-22T11:11:53.324Z,39.70
2017-06-22T11:14:26.151Z,40.00
2017-06-22T11:16:59.116Z,40.70
2017-06-22T11:19:31.902Z,38.20
2017-06-22T11:22:04.788Z,37.30
2017-06-22T11:24:37.955Z,40.20
2017-06-22T11:27:10.795Z,40.30
2017-06-22T11:29:43.871Z,38.70
2017-06-22T11:32:16.939Z,40.20
2017-06-22T11:34:49.800Z,38.70
2017-06-22T11:37:22.468Z,39.60
2017-06-22T11:39:55.591Z,39.00
2017-06-22T11:42:28.234Z,40.60
2017-06-22T11:45:01.536Z,38.00
2017-06-22T11:47:34.427Z,38.80
2017-06-22T11:50:07.404Z,39.40
2017-06-22T11:52:40.187Z,39.90
2017-06-22T11:55:13.239Z,39.90
2017-06-22T11:57:46.191Z,40.70
2017-06-22T12:00:19.135Z,38.30
2017-06-22T12:02:51.701Z,38.90
2017-06-22T12:05:24.711Z,36.90
2017-06-22T12:07:57.574Z,37.00
2017-06-22T12:10:30.432Z,35.40
2017-06-22T12:13:03.218Z,34.60
2017-06-22T12:15:36.307Z,37.00
2017-06-22T12:18:09.223Z,36.40
2017-06-22T12:20:41.879Z,35.90
2017-06-22T12:23:14.835Z,35.70
2017-06-22T12:25:47.121Z,37.50
2017-06-22T12:28:20.067Z,38.60
2017-06-22T12:30:52.756Z,39.00
2017-06-22T12:33:25.672Z,40.00
2017-06-22T12:35:58.447Z,39.70
2017-06-22T12:38:31.320Z,47.60
2017-06-22T12:41:04.240Z,47.50
2017-06-22T12:43:37.040Z,58.40
2017-06-22T12:46:10.123Z,63.40
2017-06-22T12:48:43.003Z,66.00
2017-06-22T12:51:16.015Z,61.70
2017-06-22T12:53:48.798Z,54.30
2017-06-22T12:56:21.691Z,45.70
2017-06-22T12:58:54.271Z,39.60
2017-06-22T13:01:27.047Z,36.50
2017-06-22T13:04:00.011Z,32.30
2017-06-22T13:06:33.139Z,35.60
2017-06-22T13:09:05.999Z,34.50
2017-06-22T13:11:38.950Z,32.20
2017-06-22T13:14:12.976Z,31.20
2017-06-22T13:16:46.243Z,32.20
2017-06-22T13:19:18.835Z,27.80
2017-06-22T13:21:51.875Z,25.90
2017-06-22T13:24:24.803Z,27.60
2017-06-22T13:26:57.455Z,29.70
2017-06-22T13:29:30.493Z,28.10
2017-06-22T13:32:03.367Z,30.00
2017-06-22T13:34:36.230Z,32.30
2017-06-22T13:37:09.067Z,33.30
2017-06-22T13:39:42.099Z,38.00
2017-06-22T13:42:14.931Z,42.00
2017-06-22T13:44:47.651Z,42.50
2017-06-22T13:47:20.679Z,41.60
2017-06-22T13:49:53.475Z,43.40
2017-06-22T13:52:26.408Z,47.20
2017-06-22T13:54:59.231Z,47.10
2017-06-22T13:57:32.039Z,50.10
2017-06-22T14:00:04.624Z,45.20
2017-06-22T14:02:37.572Z,46.80
2017-06-22T14:05:10.458Z,44.90
2017-06-22T14:07:43.174Z,45.20
2017-06-22T14:10:15.499Z,47.50
2017-06-22T14:12:48.483Z,47.60
2017-06-22T14:15:21.515Z,48.00
2017-06-22T14:17:56.906Z,50.70
2017-06-22T14:20:29.411Z,52.60
2017-06-22T14:23:02.147Z,51.60
2017-06-22T14:25:34.729Z,53.20
2017-06-22T14:28:07.471Z,54.00
2017-06-22T14:30:40.203Z,55.20
2017-06-22T14:33:13.026Z,55.60
2017-06-22T14:35:45.959Z,54.90
2017-06-22T14:38:19.271Z,57.10
2017-06-22T14:40:52.043Z,56.50
2017-06-22T14:43:24.955Z,57.60
2017-06-22T14:45:58.031Z,58.10
2017-06-22T14:48:30.858Z,58.40
2017-06-22T14:51:03.847Z,59.00
2017-06-22T14:53:36.991Z,58.50
2017-06-22T14:56:09.626Z,59.10
2017-06-22T14:58:42.643Z,61.60
2017-06-22T15:01:15.631Z,60.30
2017-06-22T15:03:48.579Z,60.50
2017-06-22T15:06:21.466Z,60.80
2017-06-22T15:08:54.644Z,61.40
2017-06-22T15:11:27.307Z,62.20
2017-06-22T15:14:00.360Z,63.40
2017-06-22T15:16:33.398Z,63.70
2017-06-22T15:19:06.454Z,64.70
2017-06-22T15:21:39.351Z,66.20
2017-06-22T15:24:12.611Z,63.90
2017-06-22T15:26:45.439Z,66.10
2017-06-22T15:29:18.511Z,63.20
2017-06-22T15:31:51.324Z,61.70
2017-06-22T15:34:24.451Z,60.70
2017-06-22T15:36:57.391Z,62.00
2017-06-22T15:39:30.095Z,64.30
2017-06-22T15:42:00.077Z,68.90
2017-06-22T15:44:33.028Z,73.20
2017-06-22T15:47:06.191Z,71.20
2017-06-22T15:49:38.827Z,69.70
2017-06-22T15:52:11.356Z,73.90
2017-06-22T15:54:44.307Z,69.30
2017-06-22T15:57:16.931Z,70.00
2017-06-22T15:59:49.783Z,69.80
2017-06-22T16:02:22.364Z,68.60
2017-06-22T16:04:55.205Z,71.30
2017-06-22T16:07:27.931Z,72.30
2017-06-22T16:10:00.875Z,70.00
2017-06-22T16:12:33.671Z,68.10
2017-06-22T16:15:06.443Z,67.20
2017-06-22T16:17:39.455Z,67.30
2017-06-22T16:20:12.379Z,66.50
2017-06-22T16:22:45.287Z,64.80
2017-06-22T16:25:18.048Z,65.60
2017-06-22T16:27:50.703Z,64.90
2017-06-22T16:30:23.740Z,64.50
2017-06-22T16:32:56.654Z,65.50
2017-06-22T16:35:29.422Z,67.50
2017-06-22T16:38:02.063Z,68.70
2017-06-22T16:40:37.652Z,68.70
2017-06-22T16:43:09.871Z,69.70
2017-06-22T16:45:42.699Z,65.40
2017-06-22T16:48:15.412Z,66.20
2017-06-22T16:50:48.575Z,63.50
2017-06-22T16:53:21.294Z,65.20
2017-06-22T16:55:54.103Z,66.60
2017-06-22T16:58:26.944Z,63.30
2017-06-22T17:00:59.547Z,64.20
2017-06-22T17:03:32.536Z,59.70
2017-06-22T17:06:05.424Z,62.70
2017-06-22T17:08:38.251Z,66.70
2017-06-22T17:11:11.112Z,64.10
2017-06-22T17:13:43.916Z,65.60
2017-06-22T17:16:16.995Z,63.80
2017-06-22T17:18:49.682Z,59.90
2017-06-22T17:21:22.509Z,58.10
2017-06-22T17:23:55.671Z,60.00
2017-06-22T17:26:28.705Z,58.10
2017-06-22T17:29:01.656Z,57.80
2017-06-22T17:31:34.499Z,56.70
2017-06-22T17:34:07.144Z,60.00
2017-06-22T17:36:39.940Z,61.70
2017-06-22T17:39:12.792Z,62.00
2017-06-22T17:41:45.756Z,62.90
2017-06-22T17:44:18.658Z,60.30
2017-06-22T17:46:51.694Z,59.70
2017-06-22T17:49:24.551Z,60.50
2017-06-22T17:51:57.415Z,59.90
2017-06-22T17:54:30.195Z,61.30
2017-06-22T17:57:03.171Z,59.80
2017-06-22T17:59:35.858Z,57.50
2017-06-22T18:02:08.989Z,57.80
2017-06-22T18:04:41.983Z,58.60
2017-06-22T18:07:14.793Z,61.60
2017-06-22T18:09:47.564Z,61.10
2017-06-22T18:12:20.394Z,60.60
2017-06-22T18:14:53.289Z,62.80
2017-06-22T18:17:23.239Z,61.40
2017-06-22T18:19:56.195Z,62.80
2017-06-22T18:22:29.060Z,67.00
2017-06-22T18:25:02.041Z,65.70
2017-06-22T18:27:34.912Z,67.60
2017-06-22T18:30:08.022Z,68.70
2017-06-22T18:32:41.480Z,67.80
2017-06-22T18:35:14.348Z,68.60
2017-06-22T18:37:47.330Z,68.70
2017-06-22T18:40:20.354Z,70.30
2017-06-22T18:42:53.579Z,69.60
2017-06-22T18:45:27.272Z,70.70
2017-06-22T18:48:00.294Z,71.50
2017-06-22T18:50:33.297Z,72.00
2017-06-22T18:53:07.294Z,71.50
2017-06-22T18:55:40.876Z,71.20
2017-06-22T18:58:14.383Z,72.70
2017-06-22T19:00:48.259Z,73.70
2017-06-22T19:03:22.361Z,75.30
2017-06-22T19:05:56.031Z,76.30
2017-06-22T19:08:29.936Z,77.00
2017-06-22T19:11:03.846Z,78.50
2017-06-22T19:13:37.857Z,78.10
2017-06-22T19:16:11.620Z,78.70
2017-06-22T19:18:46.245Z,78.80
2017-06-22T19:21:19.980Z,79.20
2017-06-22T19:23:54.109Z,78.50
2017-06-22T19:26:27.975Z,78.50
2017-06-22T19:29:01.858Z,77.80
2017-06-22T19:31:35.668Z,78.40
2017-06-22T19:34:09.557Z,76.50
2017-06-22T19:36:43.203Z,76.50
2017-06-22T19:39:17.364Z,76.60
2017-06-22T19:41:51.349Z,77.60
2017-06-22T19:44:25.245Z,78.50
2017-06-22T19:46:59.176Z,78.60
2017-06-22T19:49:33.125Z,78.90
2017-06-22T19:52:06.912Z,80.10
2017-06-22T19:54:40.936Z,80.30
2017-06-22T19:57:14.736Z,80.20
2017-06-22T19:59:48.659Z,81.60
2017-06-22T20:02:22.453Z,81.60
2017-06-22T20:04:56.641Z,82.10
2017-06-22T20:07:30.680Z,82.20
2017-06-22T20:10:04.788Z,82.90
2017-06-22T20:12:38.777Z,83.10
2017-06-22T20:15:12.688Z,83.50
2017-06-22T20:17:46.695Z,84.10
2017-06-22T20:20:20.678Z,83.70
2017-06-22T20:22:54.242Z,82.60
2017-06-22T20:25:28.369Z,81.90
2017-06-22T20:28:02.539Z,82.70
2017-06-22T20:30:36.381Z,83.10
2017-06-22T20:33:10.444Z,84.00
2017-06-22T20:35:44.449Z,84.50
2017-06-22T20:38:18.330Z,86.10
2017-06-22T20:40:52.565Z,86.40
2017-06-22T20:43:26.244Z,87.20
2017-06-22T20:46:00.213Z,88.10
2017-06-22T20:48:33.935Z,88.80
2017-06-22T20:51:07.317Z,88.60
2017-06-22T20:53:40.861Z,88.00
2017-06-22T20:56:13.437Z,88.60
2017-06-22T20:58:46.367Z,88.50
2017-06-22T21:01:19.005Z,88.70
2017-06-22T21:03:51.851Z,87.90
2017-06-22T21:06:25.122Z,87.60
2017-06-22T21:08:57.859Z,87.60
2017-06-22T21:11:30.875Z,87.30
2017-06-22T21:14:03.479Z,87.40
2017-06-22T21:16:36.347Z,86.60
2017-06-22T21:19:09.215Z,86.50
2017-06-22T21:21:42.015Z,86.40
2017-06-22T21:24:18.534Z,84.50
2017-06-22T21:26:48.115Z,84.30
2017-06-22T21:29:20.707Z,83.00
2017-06-22T21:31:53.535Z,82.00
2017-06-22T21:34:26.519Z,80.70
2017-06-22T21:36:59.280Z,80.80
2017-06-22T21:39:32.270Z,80.50
2017-06-22T21:42:05.267Z,80.40
2017-06-22T21:44:37.930Z,80.60
2017-06-22T21:47:11.161Z,80.60
2017-06-22T21:49:43.863Z,79.30
2017-06-22T21:52:16.495Z,79.40
2017-06-22T21:54:49.629Z,79.40
2017-06-22T21:57:22.535Z,79.80
2017-06-22T21:59:54.717Z,79.50
2017-06-22T22:02:27.611Z,78.90
2017-06-22T22:05:00.351Z,76.40
2017-06-22T22:07:33.275Z,75.40
2017-06-22T22:10:06.283Z,75.40
2017-06-22T22:12:39.156Z,74.50
2017-06-22T22:15:09.204Z,74.40
2017-06-22T22:17:41.763Z,72.90
2017-06-22T22:20:14.531Z,72.90
2017-06-22T22:22:47.439Z,73.40
2017-06-22T22:25:20.439Z,72.80
2017-06-22T22:27:55.823Z,73.00
2017-06-22T22:30:28.243Z,71.80
2017-06-22T22:33:01.239Z,72.40
2017-06-22T22:35:34.131Z,72.10
2017-06-22T22:38:07.302Z,71.70
2017-06-22T22:40:40.287Z,72.10
2017-06-22T22:43:13.124Z,70.90
2017-06-22T22:45:45.839Z,71.70
2017-06-22T22:48:19.007Z,70.90
2017-06-22T22:50:51.955Z,70.40
2017-06-22T22:53:24.931Z,68.90
2017-06-22T22:55:57.811Z,68.80
2017-06-22T22:58:30.879Z,69.20
2017-06-22T23:01:03.638Z,68.90
2017-06-22T23:03:36.467Z,68.50
2017-06-22T23:06:09.428Z,68.40
2017-06-22T23:08:42.451Z,68.10
2017-06-22T23:11:15.314Z,63.80
2017-06-22T23:13:48.333Z,62.80
2017-06-22T23:16:21.231Z,62.40
2017-06-22T23:18:54.283Z,62.50
2017-06-22T23:21:27.090Z,61.90
2017-06-22T23:23:59.859Z,61.50
2017-06-22T23:26:32.734Z,60.80
2017-06-22T23:29:05.559Z,60.10
2017-06-22T23:31:38.503Z,59.30
2017-06-22T23:34:11.335Z,58.70
2017-06-22T23:36:44.311Z,59.80
2017-06-22T23:39:17.062Z,59.60
2017-06-22T23:41:49.952Z,59.30
2017-06-22T23:44:22.898Z,59.60
2017-06-22T23:46:55.804Z,59.40
2017-06-22T23:49:28.792Z,58.40
2017-06-22T23:52:01.643Z,58.70
2017-06-22T23:54:34.443Z,58.60
2017-06-22T23:57:07.296Z,58.90
2017-06-22T23:59:40.343Z,59.30
